createdAt,value
2023-01-29T00:02:46.679Z,89.41
2023-01-29T00:05:49.753Z,89.98
2023-01-29T00:08:52.698Z,90.27
2023-01-29T00:11:55.573Z,90.59
2023-01-29T00:14:58.566Z,90.48
2023-01-29T00:18:01.482Z,90.46
2023-01-29T00:21:04.494Z,90.47
2023-01-29T00:24:07.582Z,90.28
2023-01-29T00:27:11.212Z,90.30
2023-01-29T00:30:16.532Z,90.52
2023-01-29T00:33:19.516Z,90.54
2023-01-29T00:36:23.396Z,90.62
2023-01-29T00:39:31.380Z,90.93
2023-01-29T00:42:58.041Z,91.04
2023-01-29T00:46:01.155Z,91.05
2023-01-29T00:49:06.072Z,91.25
2023-01-29T00:52:24.259Z,91.52
2023-01-29T00:55:27.345Z,91.46
2023-01-29T00:58:34.293Z,91.35
2023-01-29T01:01:55.718Z,91.36
2023-01-29T01:04:59.075Z,91.60
2023-01-29T01:08:02.154Z,91.76
2023-01-29T01:11:06.938Z,91.87
2023-01-29T01:14:09.834Z,91.93
2023-01-29T01:17:12.809Z,91.87
2023-01-29T01:20:16.182Z,92.16
2023-01-29T01:23:20.257Z,92.00
2023-01-29T01:26:23.346Z,91.98
2023-01-29T01:29:26.257Z,91.88
2023-01-29T01:32:29.216Z,92.12
2023-01-29T01:35:32.110Z,92.04
2023-01-29T01:38:36.490Z,91.94
2023-01-29T01:41:39.419Z,91.54
2023-01-29T01:44:58.812Z,91.58
2023-01-29T01:48:09.143Z,91.77
2023-01-29T01:51:12.448Z,91.68
2023-01-29T01:54:21.366Z,91.73
2023-01-29T01:57:26.439Z,91.53
2023-01-29T02:00:29.467Z,91.41
2023-01-29T02:03:56.407Z,91.41
2023-01-29T02:07:21.612Z,91.15
2023-01-29T02:10:24.762Z,90.70
2023-01-29T02:13:27.694Z,90.29
2023-01-29T02:16:30.911Z,89.52
2023-01-29T02:19:52.698Z,88.74
2023-01-29T02:22:56.325Z,88.11
2023-01-29T02:26:20.720Z,88.08
2023-01-29T02:29:28.937Z,88.01
2023-01-29T02:32:54.455Z,87.97
2023-01-29T02:36:13.334Z,88.19
2023-01-29T02:39:34.219Z,88.12
2023-01-29T02:43:02.313Z,87.88
2023-01-29T02:46:17.704Z,87.98
2023-01-29T02:49:47.355Z,87.91
2023-01-29T02:53:06.491Z,87.81
2023-01-29T02:56:37.142Z,87.31
2023-01-29T02:59:46.329Z,86.72
2023-01-29T03:02:59.435Z,86.86
2023-01-29T03:06:07.716Z,85.89
2023-01-29T03:09:24.682Z,84.51
2023-01-29T03:12:36.929Z,84.45
2023-01-29T03:15:47.483Z,84.32
2023-01-29T03:18:57.089Z,84.55
2023-01-29T03:22:04.334Z,83.91
2023-01-29T03:25:28.839Z,83.03
2023-01-29T03:28:51.935Z,82.59
2023-01-29T03:32:08.546Z,82.46
2023-01-29T03:35:21.102Z,81.56
2023-01-29T03:38:29.698Z,81.22
2023-01-29T03:41:38.080Z,81.02
2023-01-29T03:45:12.410Z,80.98
2023-01-29T03:48:40.189Z,80.52
2023-01-29T03:51:55.823Z,80.01
2023-01-29T03:55:20.542Z,79.77
2023-01-29T03:58:29.789Z,78.79
2023-01-29T04:01:41.965Z,79.23
2023-01-29T04:04:50.278Z,79.57
2023-01-29T04:08:00.887Z,78.82
2023-01-29T04:11:12.084Z,78.31
2023-01-29T04:14:15.559Z,78.79
2023-01-29T04:17:23.786Z,78.93
2023-01-29T04:20:27.091Z,78.63
2023-01-29T04:23:29.927Z,79.03
2023-01-29T04:26:58.176Z,79.19
2023-01-29T04:30:05.493Z,78.71
2023-01-29T04:33:21.911Z,78.99
2023-01-29T04:36:49.435Z,78.91
2023-01-29T04:40:04.415Z,78.37
2023-01-29T04:43:14.435Z,78.99
2023-01-29T04:46:23.493Z,78.96
2023-01-29T04:49:38.576Z,78.64
2023-01-29T04:53:04.518Z,78.40
2023-01-29T04:56:21.726Z,78.46
2023-01-29T04:59:36.215Z,78.17
2023-01-29T05:02:41.717Z,78.89
2023-01-29T05:05:48.214Z,79.25
2023-01-29T05:08:51.774Z,78.32
2023-01-29T05:11:56.015Z,79.11
2023-01-29T05:15:02.163Z,78.43
2023-01-29T05:18:09.232Z,78.75
2023-01-29T05:21:12.320Z,79.41
2023-01-29T05:24:21.895Z,79.44
2023-01-29T05:27:53.275Z,79.50
2023-01-29T05:30:57.438Z,79.65
2023-01-29T05:34:00.404Z,80.03
2023-01-29T05:37:03.326Z,79.69
2023-01-29T05:40:08.895Z,78.34
2023-01-29T05:43:23.910Z,77.70
2023-01-29T05:46:26.829Z,77.95
2023-01-29T05:49:29.737Z,77.81
2023-01-29T05:52:32.761Z,77.88
2023-01-29T05:55:35.732Z,77.71
2023-01-29T05:58:38.801Z,77.31
2023-01-29T06:01:41.940Z,76.64
2023-01-29T06:04:44.872Z,76.94
2023-01-29T06:07:47.839Z,77.29
2023-01-29T06:10:50.708Z,77.70
2023-01-29T06:13:53.933Z,77.78
2023-01-29T06:16:56.809Z,77.75
2023-01-29T06:19:59.703Z,77.75
2023-01-29T06:23:02.829Z,77.64
2023-01-29T06:26:08.094Z,77.05
2023-01-29T06:29:10.998Z,77.07
2023-01-29T06:32:14.041Z,77.37
2023-01-29T06:35:16.985Z,77.49
2023-01-29T06:38:19.927Z,77.55
2023-01-29T06:41:25.584Z,77.49
2023-01-29T06:44:28.915Z,77.28
2023-01-29T06:47:31.961Z,77.18
2023-01-29T06:50:34.905Z,76.80
2023-01-29T06:53:38.979Z,76.86
2023-01-29T06:56:41.912Z,76.96
2023-01-29T06:59:44.887Z,76.32
2023-01-29T07:02:51.044Z,75.63
2023-01-29T07:05:53.947Z,75.76
2023-01-29T07:08:56.988Z,75.47
2023-01-29T07:11:59.831Z,75.74
2023-01-29T07:15:02.877Z,76.32
2023-01-29T07:18:12.254Z,76.41
2023-01-29T07:21:15.396Z,75.92
2023-01-29T07:24:19.260Z,76.08
2023-01-29T07:27:22.197Z,76.34
2023-01-29T07:30:25.123Z,76.30
2023-01-29T07:33:28.037Z,76.73
2023-01-29T07:36:31.046Z,76.84
2023-01-29T07:39:34.020Z,76.25
2023-01-29T07:42:42.276Z,76.07
2023-01-29T07:45:45.276Z,76.88
2023-01-29T07:48:48.194Z,76.67
2023-01-29T07:51:51.082Z,75.51
2023-01-29T07:54:54.201Z,75.49
2023-01-29T07:58:02.301Z,75.00
2023-01-29T08:01:07.778Z,75.81
2023-01-29T08:04:10.911Z,76.30
2023-01-29T08:07:14.077Z,76.49
2023-01-29T08:10:17.573Z,77.26
2023-01-29T08:13:20.827Z,77.14
2023-01-29T08:16:23.839Z,76.69
2023-01-29T08:19:26.722Z,77.21
2023-01-29T08:22:29.586Z,76.75
2023-01-29T08:25:33.308Z,76.18
2023-01-29T08:28:38.716Z,76.85
2023-01-29T08:31:41.708Z,76.83
2023-01-29T08:34:44.660Z,75.60
2023-01-29T08:37:59.535Z,76.18
2023-01-29T08:41:02.585Z,75.94
2023-01-29T08:44:05.715Z,75.81
2023-01-29T08:47:08.612Z,75.67
2023-01-29T08:50:11.839Z,74.67
2023-01-29T08:53:14.716Z,75.21
2023-01-29T08:56:17.671Z,74.41
2023-01-29T08:59:22.965Z,75.06
2023-01-29T09:02:25.901Z,73.41
2023-01-29T09:05:29.267Z,74.63
2023-01-29T09:08:32.099Z,73.51
2023-01-29T09:11:34.926Z,71.78
2023-01-29T09:14:37.778Z,74.20
2023-01-29T09:17:41.221Z,72.84
2023-01-29T09:20:44.083Z,72.37
2023-01-29T09:23:46.982Z,72.33
2023-01-29T09:26:49.966Z,71.34
2023-01-29T09:29:52.870Z,71.80
2023-01-29T09:32:55.766Z,70.39
2023-01-29T09:35:58.634Z,71.28
2023-01-29T09:39:01.504Z,69.95
2023-01-29T09:42:20.976Z,69.64
2023-01-29T09:45:26.772Z,69.52
2023-01-29T09:48:33.680Z,71.08
2023-01-29T09:51:48.018Z,70.36
2023-01-29T09:55:00.238Z,69.82
2023-01-29T09:58:12.189Z,71.33
2023-01-29T10:01:40.818Z,71.45
2023-01-29T10:05:11.037Z,70.08
2023-01-29T10:08:29.069Z,70.74
2023-01-29T10:11:58.101Z,69.77
2023-01-29T10:15:25.189Z,72.46
2023-01-29T10:18:49.147Z,69.61
2023-01-29T10:22:29.592Z,70.35
2023-01-29T10:25:36.877Z,70.53
2023-01-29T10:28:47.711Z,70.15
2023-01-29T10:31:57.022Z,69.20
2023-01-29T10:35:22.092Z,65.54
2023-01-29T10:38:38.531Z,67.66
2023-01-29T10:41:47.584Z,66.69
2023-01-29T10:45:00.794Z,66.00
2023-01-29T10:48:44.245Z,66.09
2023-01-29T10:52:05.600Z,68.49
2023-01-29T10:55:27.522Z,66.72
2023-01-29T10:58:34.342Z,66.54
2023-01-29T11:01:37.347Z,67.38
2023-01-29T11:04:40.433Z,67.48
2023-01-29T11:07:43.795Z,68.78
2023-01-29T11:10:55.219Z,66.13
2023-01-29T11:14:07.168Z,66.73
2023-01-29T11:17:22.984Z,65.84
2023-01-29T11:20:28.088Z,67.48
2023-01-29T11:23:33.339Z,65.84
2023-01-29T11:26:40.735Z,65.98
2023-01-29T11:29:46.285Z,66.82
2023-01-29T11:32:56.912Z,65.06
2023-01-29T11:36:01.067Z,66.39
2023-01-29T11:39:20.776Z,65.61
2023-01-29T11:42:24.018Z,65.26
2023-01-29T11:45:32.359Z,65.19
2023-01-29T11:48:50.339Z,65.02
2023-01-29T11:51:56.291Z,63.71
2023-01-29T11:55:03.841Z,63.80
2023-01-29T11:58:12.628Z,64.07
2023-01-29T12:01:19.242Z,63.82
2023-01-29T12:04:26.245Z,62.13
2023-01-29T12:07:30.642Z,62.07
2023-01-29T12:10:39.114Z,60.74
2023-01-29T12:13:45.723Z,61.60
2023-01-29T12:16:54.576Z,63.94
2023-01-29T12:20:06.842Z,60.81
2023-01-29T12:23:42.109Z,60.92
2023-01-29T12:26:52.036Z,61.63
2023-01-29T12:30:17.859Z,62.44
2023-01-29T12:33:20.838Z,62.56
2023-01-29T12:36:47.227Z,62.91
2023-01-29T12:39:52.171Z,63.37
2023-01-29T12:43:02.808Z,63.98
2023-01-29T12:46:14.436Z,62.36
2023-01-29T12:49:33.313Z,63.69
2023-01-29T12:52:47.686Z,62.48
2023-01-29T12:56:00.105Z,63.09
2023-01-29T12:59:09.871Z,62.58
2023-01-29T13:02:27.334Z,62.90
2023-01-29T13:05:36.305Z,63.41
2023-01-29T13:08:45.341Z,62.50
2023-01-29T13:12:00.744Z,63.86
2023-01-29T13:15:29.393Z,64.22
2023-01-29T13:18:54.113Z,64.66
2023-01-29T13:22:01.304Z,63.97
2023-01-29T13:25:05.772Z,64.47
2023-01-29T13:28:18.909Z,64.11
2023-01-29T13:31:31.853Z,64.92
2023-01-29T13:34:43.637Z,64.99
2023-01-29T13:37:53.947Z,64.21
2023-01-29T13:41:03.223Z,65.28
2023-01-29T13:44:09.642Z,65.68
2023-01-29T13:47:22.402Z,65.96
2023-01-29T13:50:35.037Z,65.37
2023-01-29T13:53:40.381Z,66.12
2023-01-29T13:56:49.994Z,66.28
2023-01-29T13:59:55.427Z,66.40
2023-01-29T14:03:13.459Z,66.66
2023-01-29T14:06:41.940Z,66.53
2023-01-29T14:09:44.784Z,66.85
2023-01-29T14:12:49.949Z,67.25
2023-01-29T14:15:58.834Z,67.19
2023-01-29T14:19:04.360Z,67.88
2023-01-29T14:22:07.344Z,67.83
2023-01-29T14:25:19.518Z,67.82
2023-01-29T14:28:52.524Z,68.24
2023-01-29T14:32:00.939Z,68.29
2023-01-29T14:35:18.160Z,68.41
2023-01-29T14:38:24.992Z,68.29
2023-01-29T14:41:34.240Z,68.48
2023-01-29T14:44:47.170Z,68.91
2023-01-29T14:47:50.029Z,69.00
2023-01-29T14:50:59.275Z,69.19
2023-01-29T14:54:12.124Z,69.30
2023-01-29T14:57:18.204Z,70.02
2023-01-29T15:00:29.372Z,70.05
2023-01-29T15:03:52.638Z,70.05
2023-01-29T15:07:11.421Z,70.23
2023-01-29T15:10:23.475Z,70.62
2023-01-29T15:13:53.988Z,70.78
2023-01-29T15:17:09.610Z,70.83
2023-01-29T15:20:41.656Z,71.26
2023-01-29T15:23:46.022Z,71.39
2023-01-29T15:26:49.095Z,71.64
2023-01-29T15:30:02.368Z,71.65
2023-01-29T15:33:10.605Z,72.03
2023-01-29T15:36:30.802Z,71.98
2023-01-29T15:39:43.851Z,72.32
2023-01-29T15:42:48.836Z,73.00
2023-01-29T15:45:53.922Z,73.00
2023-01-29T15:48:59.892Z,72.84
2023-01-29T15:52:07.224Z,72.96
2023-01-29T15:55:23.462Z,73.16
2023-01-29T15:58:32.419Z,73.24
2023-01-29T16:01:35.655Z,73.50
2023-01-29T16:04:38.813Z,73.19
2023-01-29T16:07:42.712Z,73.29
2023-01-29T16:10:53.865Z,73.61
2023-01-29T16:13:57.643Z,73.97
2023-01-29T16:17:27.712Z,73.53
2023-01-29T16:20:45.239Z,73.50
2023-01-29T16:23:56.996Z,73.76
2023-01-29T16:27:06.515Z,74.31
2023-01-29T16:30:14.689Z,73.60
2023-01-29T16:33:18.011Z,73.61
2023-01-29T16:36:24.746Z,73.69
2023-01-29T16:39:34.999Z,73.97
2023-01-29T16:42:38.660Z,74.03
2023-01-29T16:45:41.716Z,74.01
2023-01-29T16:48:44.803Z,74.71
2023-01-29T16:51:47.860Z,74.41
2023-01-29T16:54:58.601Z,74.62
2023-01-29T16:58:13.211Z,74.47
2023-01-29T17:01:17.370Z,74.91
2023-01-29T17:04:21.221Z,77.58
2023-01-29T17:07:25.770Z,77.83
2023-01-29T17:10:31.194Z,77.91
2023-01-29T17:13:45.499Z,76.07
2023-01-29T17:17:15.715Z,75.79
2023-01-29T17:20:18.880Z,75.85
2023-01-29T17:23:22.769Z,75.51
2023-01-29T17:26:26.067Z,75.78
2023-01-29T17:29:31.555Z,75.76
2023-01-29T17:32:44.128Z,76.06
2023-01-29T17:35:51.722Z,76.31
2023-01-29T17:38:55.082Z,76.33
2023-01-29T17:41:59.299Z,76.37
2023-01-29T17:45:02.370Z,76.83
2023-01-29T17:48:11.883Z,76.86
2023-01-29T17:51:17.478Z,77.55
2023-01-29T17:54:21.791Z,77.87
2023-01-29T17:57:25.805Z,77.62
2023-01-29T18:00:30.116Z,77.55
2023-01-29T18:03:33.351Z,78.05
2023-01-29T18:06:37.208Z,77.79
2023-01-29T18:09:43.277Z,78.06
2023-01-29T18:12:46.953Z,78.53
2023-01-29T18:15:50.901Z,78.75
2023-01-29T18:18:54.049Z,78.76
2023-01-29T18:21:57.301Z,79.54
2023-01-29T18:25:00.243Z,79.28
2023-01-29T18:28:05.518Z,79.53
2023-01-29T18:31:09.789Z,79.82
2023-01-29T18:34:13.557Z,79.39
2023-01-29T18:37:17.108Z,79.34
2023-01-29T18:40:20.517Z,79.23
2023-01-29T18:43:26.234Z,79.11
2023-01-29T18:46:30.904Z,78.81
2023-01-29T18:49:34.343Z,78.87
2023-01-29T18:52:37.834Z,78.73
2023-01-29T18:55:42.404Z,79.12
2023-01-29T18:58:52.143Z,79.22
2023-01-29T19:01:58.561Z,79.43
2023-01-29T19:05:02.184Z,78.96
2023-01-29T19:08:05.966Z,79.14
2023-01-29T19:11:12.529Z,79.25
2023-01-29T19:14:15.965Z,79.11
2023-01-29T19:17:19.031Z,79.43
2023-01-29T19:20:22.557Z,79.48
2023-01-29T19:23:25.725Z,79.38
2023-01-29T19:26:29.095Z,79.34
2023-01-29T19:29:32.995Z,79.68
2023-01-29T19:32:36.065Z,79.55
2023-01-29T19:35:39.165Z,79.61
2023-01-29T19:38:42.433Z,79.75
2023-01-29T19:41:45.373Z,79.97
2023-01-29T19:44:49.152Z,79.81
2023-01-29T19:47:54.430Z,79.81
2023-01-29T19:51:10.522Z,80.09
2023-01-29T19:54:13.560Z,80.07
2023-01-29T19:57:16.443Z,80.12
2023-01-29T20:00:21.694Z,80.43
2023-01-29T20:03:25.856Z,80.34
2023-01-29T20:06:32.827Z,80.52
2023-01-29T20:09:35.797Z,80.32
2023-01-29T20:12:38.795Z,80.25
2023-01-29T20:15:49.778Z,80.16
2023-01-29T20:18:53.146Z,80.12
2023-01-29T20:21:56.340Z,80.43
2023-01-29T20:24:59.753Z,80.04
2023-01-29T20:28:03.404Z,80.04
2023-01-29T20:31:08.086Z,79.98
2023-01-29T20:34:11.377Z,80.14
2023-01-29T20:37:14.389Z,79.87
2023-01-29T20:40:18.657Z,79.75
2023-01-29T20:43:22.225Z,79.34
2023-01-29T20:46:27.483Z,79.33
2023-01-29T20:49:30.535Z,80.17
2023-01-29T20:52:33.839Z,79.86
2023-01-29T20:55:37.315Z,79.81
2023-01-29T20:58:43.946Z,80.24
2023-01-29T21:01:47.152Z,80.15
2023-01-29T21:04:50.180Z,80.21
2023-01-29T21:07:53.056Z,80.57
2023-01-29T21:10:56.271Z,80.03
2023-01-29T21:13:59.357Z,80.02
2023-01-29T21:17:02.899Z,80.35
2023-01-29T21:20:08.401Z,79.93
2023-01-29T21:23:11.920Z,80.16
2023-01-29T21:26:14.863Z,79.65
2023-01-29T21:29:17.942Z,79.67
2023-01-29T21:32:21.082Z,79.65
2023-01-29T21:35:23.974Z,79.97
2023-01-29T21:38:27.638Z,79.97
2023-01-29T21:41:50.859Z,80.14
2023-01-29T21:44:53.805Z,79.95
2023-01-29T21:47:56.821Z,79.96
2023-01-29T21:50:59.914Z,80.01
2023-01-29T21:54:03.595Z,79.98
2023-01-29T21:57:11.169Z,79.78
2023-01-29T22:00:14.578Z,80.19
2023-01-29T22:03:17.702Z,80.10
2023-01-29T22:06:20.958Z,80.11
2023-01-29T22:09:24.017Z,80.23
2023-01-29T22:12:27.568Z,80.03
2023-01-29T22:15:30.504Z,80.19
2023-01-29T22:18:34.120Z,79.91
2023-01-29T22:21:37.093Z,79.97
2023-01-29T22:24:40.142Z,79.96
2023-01-29T22:27:42.968Z,79.93
2023-01-29T22:30:46.471Z,79.98
2023-01-29T22:33:49.465Z,79.87
2023-01-29T22:36:52.896Z,79.78
2023-01-29T22:39:55.778Z,80.00
2023-01-29T22:42:58.830Z,80.01
2023-01-29T22:46:02.053Z,80.08
2023-01-29T22:49:05.242Z,80.10
2023-01-29T22:52:11.420Z,79.79
2023-01-29T22:55:14.273Z,79.70
2023-01-29T22:58:17.496Z,79.92
2023-01-29T23:01:22.097Z,79.64
2023-01-29T23:04:25.177Z,79.73
2023-01-29T23:07:28.087Z,79.65
2023-01-29T23:10:30.984Z,79.56
2023-01-29T23:13:34.035Z,79.30
2023-01-29T23:16:36.908Z,79.55
2023-01-29T23:19:39.792Z,79.73
2023-01-29T23:22:42.828Z,79.45
2023-01-29T23:26:04.424Z,79.56
2023-01-29T23:29:07.419Z,79.37
2023-01-29T23:32:11.812Z,79.48
2023-01-29T23:35:14.623Z,79.74
2023-01-29T23:38:17.537Z,80.04
2023-01-29T23:41:21.402Z,80.09
2023-01-29T23:44:24.380Z,80.02
2023-01-29T23:47:27.319Z,79.91
2023-01-29T23:50:30.122Z,80.12
2023-01-29T23:53:33.036Z,80.62
2023-01-29T23:56:35.893Z,80.37
2023-01-29T23:59:38.904Z,80.63
